sensor_id;sensor_type;location;lat;lon;timestamp;P1;durP1;ratioP1;P2;durP2;ratioP2
61617;SDS011;47518;51.776;9.370;2023-02-26T00:00:26;3.40;;;2.40;;
61617;SDS011;47518;51.776;9.370;2023-02-26T00:02:51;2.72;;;2.25;;
61617;SDS011;47518;51.776;9.370;2023-02-26T00:05:16;4.22;;;2.42;;
61617;SDS011;47518;51.776;9.370;2023-02-26T00:07:42;5.70;;;2.55;;
61617;SDS011;47518;51.776;9.370;2023-02-26T00:10:08;2.80;;;2.20;;
61617;SDS011;47518;51.776;9.370;2023-02-26T00:12:36;2.45;;;2.25;;
61617;SDS011;47518;51.776;9.370;2023-02-26T00:15:02;4.43;;;2.30;;
61617;SDS011;47518;51.776;9.370;2023-02-26T00:17:32;3.65;;;2.40;;
61617;SDS011;47518;51.776;9.370;2023-02-26T00:20:03;2.47;;;2.20;;
61617;SDS011;47518;51.776;9.370;2023-02-26T00:22:30;4.20;;;2.50;;
61617;SDS011;47518;51.776;9.370;2023-02-26T00:24:55;2.38;;;2.10;;
61617;SDS011;47518;51.776;9.370;2023-02-26T00:27:21;3.72;;;2.30;;
61617;SDS011;47518;51.776;9.370;2023-02-26T00:29:46;3.63;;;2.58;;
61617;SDS011;47518;51.776;9.370;2023-02-26T00:32:12;5.40;;;2.45;;
61617;SDS011;47518;51.776;9.370;2023-02-26T00:34:37;3.25;;;2.63;;
61617;SDS011;47518;51.776;9.370;2023-02-26T01:03:18;4.57;;;2.15;;
61617;SDS011;47518;51.776;9.370;2023-02-26T01:05:44;3.42;;;2.25;;
61617;SDS011;47518;51.776;9.370;2023-02-26T01:08:14;4.30;;;2.15;;
61617;SDS011;47518;51.776;9.370;2023-02-26T01:10:47;2.63;;;2.22;;
61617;SDS011;47518;51.776;9.370;2023-02-26T01:13:12;2.15;;;1.95;;
61617;SDS011;47518;51.776;9.370;2023-02-26T01:15:38;4.35;;;2.45;;
61617;SDS011;47518;51.776;9.370;2023-02-26T01:18:13;3.15;;;2.40;;
61617;SDS011;47518;51.776;9.370;2023-02-26T01:20:47;3.80;;;2.40;;
61617;SDS011;47518;51.776;9.370;2023-02-26T01:23:18;2.95;;;2.20;;
61617;SDS011;47518;51.776;9.370;2023-02-26T01:25:50;3.50;;;2.43;;
61617;SDS011;47518;51.776;9.370;2023-02-26T01:28:21;4.35;;;2.60;;
61617;SDS011;47518;51.776;9.370;2023-02-26T01:30:47;8.98;;;2.60;;
61617;SDS011;47518;51.776;9.370;2023-02-26T01:35:58;3.88;;;2.42;;
61617;SDS011;47518;51.776;9.370;2023-02-26T02:04:44;5.55;;;2.70;;
61617;SDS011;47518;51.776;9.370;2023-02-26T02:07:10;3.50;;;2.60;;
61617;SDS011;47518;51.776;9.370;2023-02-26T02:09:36;3.65;;;2.70;;
61617;SDS011;47518;51.776;9.370;2023-02-26T02:12:12;5.65;;;2.70;;
61617;SDS011;47518;51.776;9.370;2023-02-26T02:43:38;2.85;;;2.55;;
61617;SDS011;47518;51.776;9.370;2023-02-26T02:46:08;5.20;;;2.65;;
61617;SDS011;47518;51.776;9.370;2023-02-26T02:48:41;3.92;;;2.55;;
61617;SDS011;47518;51.776;9.370;2023-02-26T02:51:13;3.20;;;2.60;;
61617;SDS011;47518;51.776;9.370;2023-02-26T02:53:45;7.40;;;2.85;;
61617;SDS011;47518;51.776;9.370;2023-02-26T02:56:16;4.82;;;3.03;;
61617;SDS011;47518;51.776;9.370;2023-02-26T02:59:05;3.35;;;2.90;;
61617;SDS011;47518;51.776;9.370;2023-02-26T03:01:40;4.85;;;2.83;;
61617;SDS011;47518;51.776;9.370;2023-02-26T03:04:08;2.85;;;2.63;;
61617;SDS011;47518;51.776;9.370;2023-02-26T03:06:36;3.70;;;2.85;;
61617;SDS011;47518;51.776;9.370;2023-02-26T03:09:02;4.20;;;2.72;;
61617;SDS011;47518;51.776;9.370;2023-02-26T03:11:29;4.20;;;3.05;;
61617;SDS011;47518;51.776;9.370;2023-02-26T03:13:55;2.92;;;2.63;;
61617;SDS011;47518;51.776;9.370;2023-02-26T03:29:32;3.75;;;2.80;;
61617;SDS011;47518;51.776;9.370;2023-02-26T03:32:21;4.37;;;2.70;;
61617;SDS011;47518;51.776;9.370;2023-02-26T03:34:56;7.38;;;3.00;;
61617;SDS011;47518;51.776;9.370;2023-02-26T03:37:32;5.18;;;2.88;;
61617;SDS011;47518;51.776;9.370;2023-02-26T03:40:02;4.15;;;2.97;;
61617;SDS011;47518;51.776;9.370;2023-02-26T03:42:35;3.00;;;2.80;;
61617;SDS011;47518;51.776;9.370;2023-02-26T03:45:08;4.68;;;3.20;;
61617;SDS011;47518;51.776;9.370;2023-02-26T03:47:37;4.97;;;3.40;;
61617;SDS011;47518;51.776;9.370;2023-02-26T03:50:10;4.63;;;2.97;;
61617;SDS011;47518;51.776;9.370;2023-02-26T03:52:40;4.07;;;3.03;;
61617;SDS011;47518;51.776;9.370;2023-02-26T03:55:12;4.88;;;3.20;;
61617;SDS011;47518;51.776;9.370;2023-02-26T03:57:52;5.15;;;3.22;;
61617;SDS011;47518;51.776;9.370;2023-02-26T04:00:19;4.72;;;3.15;;
61617;SDS011;47518;51.776;9.370;2023-02-26T04:02:47;3.97;;;3.20;;
61617;SDS011;47518;51.776;9.370;2023-02-26T04:05:23;4.40;;;3.10;;
61617;SDS011;47518;51.776;9.370;2023-02-26T04:07:56;6.25;;;3.05;;
61617;SDS011;47518;51.776;9.370;2023-02-26T04:10:25;3.42;;;3.13;;
61617;SDS011;47518;51.776;9.370;2023-02-26T04:12:58;3.60;;;3.25;;
61617;SDS011;47518;51.776;9.370;2023-02-26T04:15:24;4.97;;;3.15;;
61617;SDS011;47518;51.776;9.370;2023-02-26T04:17:49;5.65;;;3.25;;
61617;SDS011;47518;51.776;9.370;2023-02-26T04:20:15;5.35;;;3.35;;
61617;SDS011;47518;51.776;9.370;2023-02-26T04:22:40;5.93;;;3.40;;
61617;SDS011;47518;51.776;9.370;2023-02-26T04:25:05;4.63;;;3.38;;
61617;SDS011;47518;51.776;9.370;2023-02-26T04:27:31;5.03;;;3.53;;
61617;SDS011;47518;51.776;9.370;2023-02-26T04:29:56;7.50;;;3.47;;
61617;SDS011;47518;51.776;9.370;2023-02-26T04:32:21;4.85;;;3.10;;
61617;SDS011;47518;51.776;9.370;2023-02-26T04:34:47;7.97;;;3.60;;
61617;SDS011;47518;51.776;9.370;2023-02-26T04:37:12;7.65;;;3.88;;
61617;SDS011;47518;51.776;9.370;2023-02-26T04:39:37;4.05;;;3.55;;
61617;SDS011;47518;51.776;9.370;2023-02-26T04:42:03;4.93;;;3.10;;
61617;SDS011;47518;51.776;9.370;2023-02-26T04:44:29;4.57;;;3.60;;
61617;SDS011;47518;51.776;9.370;2023-02-26T04:46:55;4.93;;;3.67;;
61617;SDS011;47518;51.776;9.370;2023-02-26T04:49:21;5.32;;;3.70;;
61617;SDS011;47518;51.776;9.370;2023-02-26T04:51:46;5.53;;;3.40;;
61617;SDS011;47518;51.776;9.370;2023-02-26T04:54:12;5.90;;;3.70;;
61617;SDS011;47518;51.776;9.370;2023-02-26T04:56:37;4.85;;;3.47;;
61617;SDS011;47518;51.776;9.370;2023-02-26T04:59:03;7.22;;;4.00;;
61617;SDS011;47518;51.776;9.370;2023-02-26T05:01:28;4.63;;;3.50;;
61617;SDS011;47518;51.776;9.370;2023-02-26T05:03:53;3.65;;;3.20;;
61617;SDS011;47518;51.776;9.370;2023-02-26T05:06:18;4.45;;;3.20;;
61617;SDS011;47518;51.776;9.370;2023-02-26T05:08:44;5.53;;;3.42;;
61617;SDS011;47518;51.776;9.370;2023-02-26T05:11:09;4.53;;;3.10;;
61617;SDS011;47518;51.776;9.370;2023-02-26T05:13:35;5.30;;;3.60;;
61617;SDS011;47518;51.776;9.370;2023-02-26T05:16:00;4.85;;;3.30;;
61617;SDS011;47518;51.776;9.370;2023-02-26T05:18:25;3.80;;;3.40;;
61617;SDS011;47518;51.776;9.370;2023-02-26T05:20:51;4.50;;;3.13;;
61617;SDS011;47518;51.776;9.370;2023-02-26T05:23:18;4.88;;;3.50;;
61617;SDS011;47518;51.776;9.370;2023-02-26T05:25:43;7.40;;;3.20;;
61617;SDS011;47518;51.776;9.370;2023-02-26T05:28:08;6.40;;;3.50;;
61617;SDS011;47518;51.776;9.370;2023-02-26T05:30:34;5.43;;;3.90;;
61617;SDS011;47518;51.776;9.370;2023-02-26T05:32:59;4.00;;;3.50;;
61617;SDS011;47518;51.776;9.370;2023-02-26T05:35:25;3.95;;;3.53;;
61617;SDS011;47518;51.776;9.370;2023-02-26T05:37:50;3.88;;;3.47;;
61617;SDS011;47518;51.776;9.370;2023-02-26T05:40:16;9.35;;;3.42;;
61617;SDS011;47518;51.776;9.370;2023-02-26T05:42:41;4.22;;;3.35;;
61617;SDS011;47518;51.776;9.370;2023-02-26T05:45:07;5.07;;;3.50;;
61617;SDS011;47518;51.776;9.370;2023-02-26T05:47:33;5.55;;;3.50;;
61617;SDS011;47518;51.776;9.370;2023-02-26T05:49:59;4.10;;;3.30;;
61617;SDS011;47518;51.776;9.370;2023-02-26T05:52:24;4.80;;;3.60;;
61617;SDS011;47518;51.776;9.370;2023-02-26T05:54:49;7.97;;;3.60;;
61617;SDS011;47518;51.776;9.370;2023-02-26T05:57:15;5.82;;;3.65;;
61617;SDS011;47518;51.776;9.370;2023-02-26T05:59:40;6.57;;;3.92;;
61617;SDS011;47518;51.776;9.370;2023-02-26T06:02:05;4.93;;;3.40;;
61617;SDS011;47518;51.776;9.370;2023-02-26T06:04:31;4.32;;;3.40;;
61617;SDS011;47518;51.776;9.370;2023-02-26T06:06:56;3.47;;;3.05;;
61617;SDS011;47518;51.776;9.370;2023-02-26T06:09:22;6.30;;;3.40;;
61617;SDS011;47518;51.776;9.370;2023-02-26T06:35:20;6.07;;;3.58;;
61617;SDS011;47518;51.776;9.370;2023-02-26T06:37:46;3.95;;;3.65;;
61617;SDS011;47518;51.776;9.370;2023-02-26T06:40:11;4.15;;;3.10;;
61617;SDS011;47518;51.776;9.370;2023-02-26T06:42:37;3.50;;;3.20;;
61617;SDS011;47518;51.776;9.370;2023-02-26T06:45:02;7.25;;;4.47;;
61617;SDS011;47518;51.776;9.370;2023-02-26T06:47:28;5.80;;;3.28;;
61617;SDS011;47518;51.776;9.370;2023-02-26T06:49:53;4.18;;;2.97;;
61617;SDS011;47518;51.776;9.370;2023-02-26T06:52:19;3.78;;;3.03;;
61617;SDS011;47518;51.776;9.370;2023-02-26T06:54:44;3.78;;;2.90;;
61617;SDS011;47518;51.776;9.370;2023-02-26T06:57:09;3.92;;;2.92;;
61617;SDS011;47518;51.776;9.370;2023-02-26T06:59:35;3.20;;;2.72;;
61617;SDS011;47518;51.776;9.370;2023-02-26T07:02:00;3.75;;;2.70;;
61617;SDS011;47518;51.776;9.370;2023-02-26T07:04:26;4.85;;;2.65;;
61617;SDS011;47518;51.776;9.370;2023-02-26T07:06:51;5.13;;;2.58;;
61617;SDS011;47518;51.776;9.370;2023-02-26T07:09:16;5.85;;;2.60;;
61617;SDS011;47518;51.776;9.370;2023-02-26T07:11:43;3.72;;;2.50;;
61617;SDS011;47518;51.776;9.370;2023-02-26T07:14:09;3.33;;;2.42;;
61617;SDS011;47518;51.776;9.370;2023-02-26T07:16:34;4.55;;;2.60;;
61617;SDS011;47518;51.776;9.370;2023-02-26T07:19:00;3.58;;;2.38;;
61617;SDS011;47518;51.776;9.370;2023-02-26T07:21:25;5.53;;;2.53;;
61617;SDS011;47518;51.776;9.370;2023-02-26T07:23:50;3.97;;;2.50;;
61617;SDS011;47518;51.776;9.370;2023-02-26T07:26:16;3.97;;;2.60;;
61617;SDS011;47518;51.776;9.370;2023-02-26T07:28:41;5.80;;;2.35;;
61617;SDS011;47518;51.776;9.370;2023-02-26T07:31:07;2.97;;;2.42;;
61617;SDS011;47518;51.776;9.370;2023-02-26T07:33:32;5.35;;;2.40;;
61617;SDS011;47518;51.776;9.370;2023-02-26T07:35:59;3.00;;;2.00;;
61617;SDS011;47518;51.776;9.370;2023-02-26T07:38:24;5.72;;;2.20;;
61617;SDS011;47518;51.776;9.370;2023-02-26T07:40:50;3.63;;;2.28;;
61617;SDS011;47518;51.776;9.370;2023-02-26T07:43:18;3.88;;;2.30;;
61617;SDS011;47518;51.776;9.370;2023-02-26T07:45:43;2.72;;;2.10;;
61617;SDS011;47518;51.776;9.370;2023-02-26T07:48:09;2.30;;;2.10;;
61617;SDS011;47518;51.776;9.370;2023-02-26T07:50:34;2.58;;;2.13;;
61617;SDS011;47518;51.776;9.370;2023-02-26T07:52:59;2.60;;;2.10;;
61617;SDS011;47518;51.776;9.370;2023-02-26T07:55:25;4.88;;;2.00;;
61617;SDS011;47518;51.776;9.370;2023-02-26T07:57:51;2.17;;;1.80;;
61617;SDS011;47518;51.776;9.370;2023-02-26T08:00:17;4.25;;;2.03;;
61617;SDS011;47518;51.776;9.370;2023-02-26T08:02:42;3.08;;;1.88;;
61617;SDS011;47518;51.776;9.370;2023-02-26T08:05:08;3.15;;;1.90;;
61617;SDS011;47518;51.776;9.370;2023-02-26T08:07:33;2.83;;;2.03;;
61617;SDS011;47518;51.776;9.370;2023-02-26T08:09:58;2.53;;;2.08;;
61617;SDS011;47518;51.776;9.370;2023-02-26T08:12:24;2.42;;;2.15;;
61617;SDS011;47518;51.776;9.370;2023-02-26T08:14:49;2.38;;;2.10;;
61617;SDS011;47518;51.776;9.370;2023-02-26T08:17:15;2.45;;;1.83;;
61617;SDS011;47518;51.776;9.370;2023-02-26T08:19:40;2.90;;;1.85;;
61617;SDS011;47518;51.776;9.370;2023-02-26T08:22:05;2.20;;;2.00;;
61617;SDS011;47518;51.776;9.370;2023-02-26T08:24:31;2.97;;;2.00;;
61617;SDS011;47518;51.776;9.370;2023-02-26T08:26:56;2.63;;;2.08;;
61617;SDS011;47518;51.776;9.370;2023-02-26T08:29:23;3.30;;;2.03;;
61617;SDS011;47518;51.776;9.370;2023-02-26T08:31:49;3.58;;;2.10;;
61617;SDS011;47518;51.776;9.370;2023-02-26T08:34:15;4.97;;;1.90;;
61617;SDS011;47518;51.776;9.370;2023-02-26T08:36:41;2.45;;;1.90;;
61617;SDS011;47518;51.776;9.370;2023-02-26T08:39:06;1.95;;;1.70;;
61617;SDS011;47518;51.776;9.370;2023-02-26T08:41:32;3.72;;;1.88;;
61617;SDS011;47518;51.776;9.370;2023-02-26T08:43:58;2.65;;;1.90;;
61617;SDS011;47518;51.776;9.370;2023-02-26T08:46:24;2.25;;;1.88;;
61617;SDS011;47518;51.776;9.370;2023-02-26T08:48:50;2.80;;;1.90;;
61617;SDS011;47518;51.776;9.370;2023-02-26T08:51:15;2.17;;;1.83;;
61617;SDS011;47518;51.776;9.370;2023-02-26T08:53:42;2.92;;;1.80;;
61617;SDS011;47518;51.776;9.370;2023-02-26T08:56:10;3.22;;;1.77;;
61617;SDS011;47518;51.776;9.370;2023-02-26T08:58:45;1.70;;;1.60;;
61617;SDS011;47518;51.776;9.370;2023-02-26T09:01:16;3.80;;;2.00;;
61617;SDS011;47518;51.776;9.370;2023-02-26T09:03:41;4.25;;;1.90;;
61617;SDS011;47518;51.776;9.370;2023-02-26T09:06:07;1.73;;;1.60;;
61617;SDS011;47518;51.776;9.370;2023-02-26T09:08:34;3.55;;;1.70;;
61617;SDS011;47518;51.776;9.370;2023-02-26T09:11:00;2.72;;;2.00;;
61617;SDS011;47518;51.776;9.370;2023-02-26T09:13:27;2.30;;;1.90;;
61617;SDS011;47518;51.776;9.370;2023-02-26T09:15:53;3.58;;;1.77;;
61617;SDS011;47518;51.776;9.370;2023-02-26T09:18:19;2.50;;;1.77;;
61617;SDS011;47518;51.776;9.370;2023-02-26T09:20:44;2.65;;;1.80;;
61617;SDS011;47518;51.776;9.370;2023-02-26T09:23:10;2.00;;;1.80;;
61617;SDS011;47518;51.776;9.370;2023-02-26T09:25:36;2.65;;;1.83;;
61617;SDS011;47518;51.776;9.370;2023-02-26T09:28:01;1.90;;;1.80;;
61617;SDS011;47518;51.776;9.370;2023-02-26T09:30:28;2.10;;;1.90;;
61617;SDS011;47518;51.776;9.370;2023-02-26T09:32:53;2.25;;;1.70;;
61617;SDS011;47518;51.776;9.370;2023-02-26T09:35:18;2.40;;;1.67;;
61617;SDS011;47518;51.776;9.370;2023-02-26T09:37:44;1.80;;;1.70;;
61617;SDS011;47518;51.776;9.370;2023-02-26T09:40:16;3.42;;;1.70;;
61617;SDS011;47518;51.776;9.370;2023-02-26T09:45:43;3.08;;;1.90;;
61617;SDS011;47518;51.776;9.370;2023-02-26T09:48:11;3.17;;;1.80;;
61617;SDS011;47518;51.776;9.370;2023-02-26T09:53:26;3.67;;;2.25;;
61617;SDS011;47518;51.776;9.370;2023-02-26T09:55:57;2.13;;;1.90;;
61617;SDS011;47518;51.776;9.370;2023-02-26T09:58:32;2.30;;;2.10;;
61617;SDS011;47518;51.776;9.370;2023-02-26T10:01:19;2.88;;;1.70;;
61617;SDS011;47518;51.776;9.370;2023-02-26T10:12:38;2.95;;;1.60;;
61617;SDS011;47518;51.776;9.370;2023-02-26T10:18:13;2.67;;;1.70;;
61617;SDS011;47518;51.776;9.370;2023-02-26T10:23:40;1.70;;;1.60;;
61617;SDS011;47518;51.776;9.370;2023-02-26T10:26:19;1.80;;;1.70;;
61617;SDS011;47518;51.776;9.370;2023-02-26T10:28:50;2.38;;;1.85;;
61617;SDS011;47518;51.776;9.370;2023-02-26T10:34:19;4.40;;;1.95;;
61617;SDS011;47518;51.776;9.370;2023-02-26T10:43:07;3.58;;;2.58;;
61617;SDS011;47518;51.776;9.370;2023-02-26T10:45:46;9.75;;;5.30;;
61617;SDS011;47518;51.776;9.370;2023-02-26T10:58:56;1.80;;;1.70;;
61617;SDS011;47518;51.776;9.370;2023-02-26T11:01:23;3.08;;;1.60;;
61617;SDS011;47518;51.776;9.370;2023-02-26T11:03:54;2.58;;;1.80;;
61617;SDS011;47518;51.776;9.370;2023-02-26T11:06:23;2.15;;;1.95;;
61617;SDS011;47518;51.776;9.370;2023-02-26T11:08:55;2.47;;;1.95;;
61617;SDS011;47518;51.776;9.370;2023-02-26T11:11:40;1.67;;;1.58;;
61617;SDS011;47518;51.776;9.370;2023-02-26T11:14:10;1.92;;;1.70;;
61617;SDS011;47518;51.776;9.370;2023-02-26T11:16:40;1.90;;;1.73;;
61617;SDS011;47518;51.776;9.370;2023-02-26T11:19:10;3.10;;;2.00;;
61617;SDS011;47518;51.776;9.370;2023-02-26T11:21:38;3.03;;;2.20;;
61617;SDS011;47518;51.776;9.370;2023-02-26T11:26:49;3.60;;;2.00;;
61617;SDS011;47518;51.776;9.370;2023-02-26T11:29:19;1.70;;;1.60;;
61617;SDS011;47518;51.776;9.370;2023-02-26T11:31:48;2.10;;;1.85;;
61617;SDS011;47518;51.776;9.370;2023-02-26T11:34:15;2.58;;;1.90;;
61617;SDS011;47518;51.776;9.370;2023-02-26T11:36:47;3.25;;;1.80;;
61617;SDS011;47518;51.776;9.370;2023-02-26T11:39:15;4.03;;;1.83;;
61617;SDS011;47518;51.776;9.370;2023-02-26T11:41:44;1.88;;;1.70;;
61617;SDS011;47518;51.776;9.370;2023-02-26T11:44:13;2.60;;;1.80;;
61617;SDS011;47518;51.776;9.370;2023-02-26T11:46:44;8.32;;;5.25;;
61617;SDS011;47518;51.776;9.370;2023-02-26T11:49:14;2.92;;;2.15;;
61617;SDS011;47518;51.776;9.370;2023-02-26T11:51:44;4.82;;;2.55;;
61617;SDS011;47518;51.776;9.370;2023-02-26T11:54:20;2.10;;;2.00;;
61617;SDS011;47518;51.776;9.370;2023-02-26T11:56:48;2.88;;;1.75;;
61617;SDS011;47518;51.776;9.370;2023-02-26T11:59:18;2.70;;;2.20;;
61617;SDS011;47518;51.776;9.370;2023-02-26T12:01:45;1.83;;;1.73;;
61617;SDS011;47518;51.776;9.370;2023-02-26T12:04:12;2.15;;;1.70;;
61617;SDS011;47518;51.776;9.370;2023-02-26T12:06:39;2.45;;;1.80;;
61617;SDS011;47518;51.776;9.370;2023-02-26T12:09:10;1.90;;;1.80;;
61617;SDS011;47518;51.776;9.370;2023-02-26T12:14:35;5.35;;;2.55;;
61617;SDS011;47518;51.776;9.370;2023-02-26T12:17:13;2.67;;;2.30;;
61617;SDS011;47518;51.776;9.370;2023-02-26T12:19:53;2.95;;;1.63;;
61617;SDS011;47518;51.776;9.370;2023-02-26T12:22:47;2.08;;;1.80;;
61617;SDS011;47518;51.776;9.370;2023-02-26T12:25:26;2.50;;;1.88;;
61617;SDS011;47518;51.776;9.370;2023-02-26T12:30:55;2.80;;;1.60;;
61617;SDS011;47518;51.776;9.370;2023-02-26T12:46:58;1.70;;;1.60;;
61617;SDS011;47518;51.776;9.370;2023-02-26T12:52:24;2.50;;;1.90;;
61617;SDS011;47518;51.776;9.370;2023-02-26T12:57:48;3.25;;;2.30;;
61617;SDS011;47518;51.776;9.370;2023-02-26T13:00:26;3.88;;;1.70;;
61617;SDS011;47518;51.776;9.370;2023-02-26T13:09:07;2.58;;;2.22;;
61617;SDS011;47518;51.776;9.370;2023-02-26T13:11:46;3.22;;;2.03;;
61617;SDS011;47518;51.776;9.370;2023-02-26T13:14:27;1.92;;;1.83;;
61617;SDS011;47518;51.776;9.370;2023-02-26T13:17:18;2.33;;;2.00;;
61617;SDS011;47518;51.776;9.370;2023-02-26T13:19:54;2.05;;;1.92;;
61617;SDS011;47518;51.776;9.370;2023-02-26T13:22:27;3.25;;;2.00;;
61617;SDS011;47518;51.776;9.370;2023-02-26T13:24:59;2.45;;;2.10;;
61617;SDS011;47518;51.776;9.370;2023-02-26T13:27:28;2.33;;;2.00;;
61617;SDS011;47518;51.776;9.370;2023-02-26T13:30:02;2.30;;;2.10;;
61617;SDS011;47518;51.776;9.370;2023-02-26T13:32:47;1.65;;;1.58;;
61617;SDS011;47518;51.776;9.370;2023-02-26T13:35:18;2.05;;;1.80;;
61617;SDS011;47518;51.776;9.370;2023-02-26T13:38:06;1.98;;;1.80;;
61617;SDS011;47518;51.776;9.370;2023-02-26T13:40:59;3.35;;;1.98;;
61617;SDS011;47518;51.776;9.370;2023-02-26T13:43:52;2.42;;;2.20;;
61617;SDS011;47518;51.776;9.370;2023-02-26T13:49:15;2.78;;;2.15;;
61617;SDS011;47518;51.776;9.370;2023-02-26T13:51:48;2.50;;;2.30;;
61617;SDS011;47518;51.776;9.370;2023-02-26T13:57:21;2.40;;;2.20;;
61617;SDS011;47518;51.776;9.370;2023-02-26T14:02:51;2.20;;;2.10;;
61617;SDS011;47518;51.776;9.370;2023-02-26T14:08:23;2.00;;;1.90;;
61617;SDS011;47518;51.776;9.370;2023-02-26T14:10:53;2.10;;;1.90;;
61617;SDS011;47518;51.776;9.370;2023-02-26T14:13:22;2.00;;;1.90;;
61617;SDS011;47518;51.776;9.370;2023-02-26T14:16:10;2.22;;;1.90;;
61617;SDS011;47518;51.776;9.370;2023-02-26T14:18:53;2.17;;;1.70;;
61617;SDS011;47518;51.776;9.370;2023-02-26T14:37:22;1.88;;;1.77;;
61617;SDS011;47518;51.776;9.370;2023-02-26T14:39:54;2.47;;;2.25;;
61617;SDS011;47518;51.776;9.370;2023-02-26T14:45:11;1.75;;;1.60;;
61617;SDS011;47518;51.776;9.370;2023-02-26T14:48:04;1.80;;;1.70;;
61617;SDS011;47518;51.776;9.370;2023-02-26T14:50:40;2.42;;;1.80;;
61617;SDS011;47518;51.776;9.370;2023-02-26T15:34:11;2.75;;;2.40;;
61617;SDS011;47518;51.776;9.370;2023-02-26T15:36:38;2.33;;;2.10;;
61617;SDS011;47518;51.776;9.370;2023-02-26T15:39:08;2.22;;;2.03;;
61617;SDS011;47518;51.776;9.370;2023-02-26T15:41:34;1.85;;;1.75;;
61617;SDS011;47518;51.776;9.370;2023-02-26T15:44:03;2.13;;;1.83;;
61617;SDS011;47518;51.776;9.370;2023-02-26T15:46:32;2.00;;;1.80;;
61617;SDS011;47518;51.776;9.370;2023-02-26T15:49:19;2.40;;;2.10;;
61617;SDS011;47518;51.776;9.370;2023-02-26T15:51:57;3.38;;;1.92;;
61617;SDS011;47518;51.776;9.370;2023-02-26T15:54:32;2.97;;;1.90;;
61617;SDS011;47518;51.776;9.370;2023-02-26T15:57:14;2.33;;;1.90;;
61617;SDS011;47518;51.776;9.370;2023-02-26T15:59:43;2.97;;;2.50;;
61617;SDS011;47518;51.776;9.370;2023-02-26T16:02:12;3.15;;;2.47;;
61617;SDS011;47518;51.776;9.370;2023-02-26T16:04:43;3.35;;;2.20;;
61617;SDS011;47518;51.776;9.370;2023-02-26T16:07:10;4.43;;;2.25;;
61617;SDS011;47518;51.776;9.370;2023-02-26T16:09:38;2.45;;;2.22;;
61617;SDS011;47518;51.776;9.370;2023-02-26T16:15:00;2.40;;;2.20;;
61617;SDS011;47518;51.776;9.370;2023-02-26T16:17:30;2.35;;;2.15;;
61617;SDS011;47518;51.776;9.370;2023-02-26T16:20:01;5.22;;;3.00;;
61617;SDS011;47518;51.776;9.370;2023-02-26T16:22:32;4.27;;;3.00;;
61617;SDS011;47518;51.776;9.370;2023-02-26T16:25:05;3.47;;;2.33;;
61617;SDS011;47518;51.776;9.370;2023-02-26T16:27:40;2.63;;;1.92;;
61617;SDS011;47518;51.776;9.370;2023-02-26T16:30:16;4.50;;;2.20;;
61617;SDS011;47518;51.776;9.370;2023-02-26T16:32:50;5.32;;;3.05;;
61617;SDS011;47518;51.776;9.370;2023-02-26T16:35:20;4.10;;;3.17;;
61617;SDS011;47518;51.776;9.370;2023-02-26T16:37:50;4.60;;;3.75;;
61617;SDS011;47518;51.776;9.370;2023-02-26T16:40:24;3.25;;;2.20;;
61617;SDS011;47518;51.776;9.370;2023-02-26T16:42:55;2.45;;;2.10;;
61617;SDS011;47518;51.776;9.370;2023-02-26T16:45:41;2.25;;;2.05;;
61617;SDS011;47518;51.776;9.370;2023-02-26T16:48:15;3.17;;;2.00;;
61617;SDS011;47518;51.776;9.370;2023-02-26T16:50:52;2.20;;;2.00;;
61617;SDS011;47518;51.776;9.370;2023-02-26T16:53:32;4.28;;;2.20;;
61617;SDS011;47518;51.776;9.370;2023-02-26T16:56:05;1.95;;;1.85;;
61617;SDS011;47518;51.776;9.370;2023-02-26T16:58:40;2.72;;;2.22;;
61617;SDS011;47518;51.776;9.370;2023-02-26T17:01:11;2.85;;;1.98;;
61617;SDS011;47518;51.776;9.370;2023-02-26T17:03:40;2.60;;;2.10;;
61617;SDS011;47518;51.776;9.370;2023-02-26T17:06:15;2.30;;;2.10;;
61617;SDS011;47518;51.776;9.370;2023-02-26T17:11:26;2.50;;;2.30;;
61617;SDS011;47518;51.776;9.370;2023-02-26T17:14:14;2.50;;;2.20;;
61617;SDS011;47518;51.776;9.370;2023-02-26T17:16:46;4.03;;;2.10;;
61617;SDS011;47518;51.776;9.370;2023-02-26T17:19:12;3.55;;;2.28;;
61617;SDS011;47518;51.776;9.370;2023-02-26T17:21:41;2.72;;;2.20;;
61617;SDS011;47518;51.776;9.370;2023-02-26T17:24:12;2.90;;;2.10;;
61617;SDS011;47518;51.776;9.370;2023-02-26T17:29:08;2.25;;;2.03;;
61617;SDS011;47518;51.776;9.370;2023-02-26T17:31:41;3.10;;;2.40;;
61617;SDS011;47518;51.776;9.370;2023-02-26T17:34:20;2.70;;;2.50;;
61617;SDS011;47518;51.776;9.370;2023-02-26T17:36:45;2.80;;;2.60;;
61617;SDS011;47518;51.776;9.370;2023-02-26T17:39:12;3.40;;;2.17;;
61617;SDS011;47518;51.776;9.370;2023-02-26T17:41:37;2.40;;;2.20;;
61617;SDS011;47518;51.776;9.370;2023-02-26T17:44:06;2.90;;;2.45;;
61617;SDS011;47518;51.776;9.370;2023-02-26T17:46:31;2.88;;;2.58;;
61617;SDS011;47518;51.776;9.370;2023-02-26T17:48:56;4.38;;;2.65;;
61617;SDS011;47518;51.776;9.370;2023-02-26T17:51:22;3.03;;;2.33;;
61617;SDS011;47518;51.776;9.370;2023-02-26T17:53:47;4.25;;;2.25;;
61617;SDS011;47518;51.776;9.370;2023-02-26T17:56:15;2.45;;;2.15;;
61617;SDS011;47518;51.776;9.370;2023-02-26T17:58:49;3.70;;;2.63;;
61617;SDS011;47518;51.776;9.370;2023-02-26T18:01:15;2.50;;;2.30;;
61617;SDS011;47518;51.776;9.370;2023-02-26T18:03:41;2.30;;;2.20;;
61617;SDS011;47518;51.776;9.370;2023-02-26T18:06:07;2.35;;;2.15;;
61617;SDS011;47518;51.776;9.370;2023-02-26T18:08:36;4.22;;;2.17;;
61617;SDS011;47518;51.776;9.370;2023-02-26T18:11:01;2.97;;;2.10;;
61617;SDS011;47518;51.776;9.370;2023-02-26T18:13:28;3.30;;;2.00;;
61617;SDS011;47518;51.776;9.370;2023-02-26T18:15:54;1.90;;;1.80;;
61617;SDS011;47518;51.776;9.370;2023-02-26T18:18:22;2.15;;;2.05;;
61617;SDS011;47518;51.776;9.370;2023-02-26T18:20:48;2.63;;;2.10;;
61617;SDS011;47518;51.776;9.370;2023-02-26T18:23:14;2.20;;;2.00;;
61617;SDS011;47518;51.776;9.370;2023-02-26T18:25:41;2.67;;;2.30;;
61617;SDS011;47518;51.776;9.370;2023-02-26T18:28:11;2.88;;;2.40;;
61617;SDS011;47518;51.776;9.370;2023-02-26T18:30:39;3.22;;;2.50;;
61617;SDS011;47518;51.776;9.370;2023-02-26T18:33:07;3.28;;;2.55;;
61617;SDS011;47518;51.776;9.370;2023-02-26T18:35:33;2.40;;;2.20;;
61617;SDS011;47518;51.776;9.370;2023-02-26T18:37:58;5.28;;;2.97;;
61617;SDS011;47518;51.776;9.370;2023-02-26T18:40:25;4.57;;;2.30;;
61617;SDS011;47518;51.776;9.370;2023-02-26T18:42:51;3.05;;;2.80;;
61617;SDS011;47518;51.776;9.370;2023-02-26T18:45:17;3.30;;;2.80;;
61617;SDS011;47518;51.776;9.370;2023-02-26T18:47:43;2.15;;;2.05;;
61617;SDS011;47518;51.776;9.370;2023-02-26T18:50:10;2.33;;;2.13;;
61617;SDS011;47518;51.776;9.370;2023-02-26T18:52:38;2.40;;;2.20;;
61617;SDS011;47518;51.776;9.370;2023-02-26T18:55:04;3.22;;;2.83;;
61617;SDS011;47518;51.776;9.370;2023-02-26T18:57:30;3.05;;;2.70;;
61617;SDS011;47518;51.776;9.370;2023-02-26T18:59:56;2.80;;;2.60;;
61617;SDS011;47518;51.776;9.370;2023-02-26T19:02:23;3.00;;;2.20;;
61617;SDS011;47518;51.776;9.370;2023-02-26T19:04:48;2.08;;;1.88;;
61617;SDS011;47518;51.776;9.370;2023-02-26T19:07:14;3.08;;;2.45;;
61617;SDS011;47518;51.776;9.370;2023-02-26T19:09:39;2.95;;;2.40;;
61617;SDS011;47518;51.776;9.370;2023-02-26T19:12:05;3.13;;;2.35;;
61617;SDS011;47518;51.776;9.370;2023-02-26T19:14:31;2.60;;;2.40;;
61617;SDS011;47518;51.776;9.370;2023-02-26T19:16:57;3.00;;;2.70;;
61617;SDS011;47518;51.776;9.370;2023-02-26T19:19:22;2.75;;;2.50;;
61617;SDS011;47518;51.776;9.370;2023-02-26T19:21:48;3.70;;;2.70;;
61617;SDS011;47518;51.776;9.370;2023-02-26T19:24:13;3.95;;;3.40;;
61617;SDS011;47518;51.776;9.370;2023-02-26T19:26:39;3.60;;;2.72;;
61617;SDS011;47518;51.776;9.370;2023-02-26T19:29:07;2.33;;;2.00;;
61617;SDS011;47518;51.776;9.370;2023-02-26T19:31:33;2.38;;;2.17;;
61617;SDS011;47518;51.776;9.370;2023-02-26T19:34:00;2.88;;;2.63;;